createdAt,value
2019-05-16T00:01:19.199Z,6.10
2019-05-16T00:03:48.922Z,6.20
2019-05-16T00:06:18.025Z,6.10
2019-05-16T00:08:48.057Z,6.20
2019-05-16T00:11:17.954Z,6.20
2019-05-16T00:13:48.864Z,6.10
2019-05-16T00:16:18.758Z,6.20
2019-05-16T00:18:48.008Z,6.10
2019-05-16T00:21:17.938Z,6.20
2019-05-16T00:23:48.564Z,6.20
2019-05-16T00:26:19.497Z,6.20
2019-05-16T00:28:48.465Z,6.30
2019-05-16T00:31:18.297Z,6.30
2019-05-16T00:33:48.692Z,6.30
2019-05-16T00:36:18.951Z,6.30
2019-05-16T00:38:48.485Z,6.40
2019-05-16T00:41:18.070Z,6.40
2019-05-16T00:43:48.606Z,6.50
2019-05-16T00:46:19.803Z,6.40
2019-05-16T00:48:48.714Z,6.50
2019-05-16T00:51:18.281Z,6.40
2019-05-16T00:53:48.327Z,6.30
2019-05-16T00:56:18.573Z,6.20
2019-05-16T00:58:48.601Z,6.10
2019-05-16T01:01:19.015Z,6.10
2019-05-16T01:03:48.330Z,6.20
2019-05-16T01:06:22.565Z,6.20
2019-05-16T01:08:48.764Z,6.30
2019-05-16T01:11:18.580Z,6.20
2019-05-16T01:13:48.751Z,6.30
2019-05-16T01:16:18.693Z,6.20
2019-05-16T01:18:48.598Z,6.20
2019-05-16T01:21:18.540Z,6.20
2019-05-16T01:23:48.232Z,6.20
2019-05-16T01:26:18.553Z,6.10
2019-05-16T01:28:48.343Z,6.20
2019-05-16T01:31:19.161Z,6.10
2019-05-16T01:33:48.096Z,6.20
2019-05-16T01:36:26.264Z,6.20
2019-05-16T01:38:48.075Z,6.20
2019-05-16T01:41:17.986Z,6.10
2019-05-16T01:43:48.383Z,6.10
2019-05-16T01:46:18.112Z,6.10
2019-05-16T01:48:48.469Z,6.20
2019-05-16T01:51:18.390Z,6.20
2019-05-16T01:53:48.893Z,6.20
2019-05-16T01:56:18.078Z,6.30
2019-05-16T01:58:49.029Z,6.30
2019-05-16T02:01:19.055Z,6.20
2019-05-16T02:03:48.359Z,6.20
2019-05-16T02:06:18.422Z,6.20
2019-05-16T02:08:48.753Z,6.10
2019-05-16T02:11:18.216Z,6.10
2019-05-16T02:13:48.422Z,6.00
2019-05-16T02:16:18.706Z,6.00
2019-05-16T02:18:48.831Z,6.00
2019-05-16T02:21:18.162Z,6.10
2019-05-16T02:23:51.325Z,6.00
2019-05-16T02:26:19.176Z,6.00
2019-05-16T02:28:50.520Z,6.00
2019-05-16T02:31:22.387Z,6.00
2019-05-16T02:33:51.059Z,6.00
2019-05-16T02:36:21.682Z,6.00
2019-05-16T02:38:55.156Z,6.00
2019-05-16T02:41:21.682Z,6.00
2019-05-16T02:43:50.940Z,6.00
2019-05-16T02:46:21.724Z,5.90
2019-05-16T02:48:51.807Z,5.90
2019-05-16T02:51:21.224Z,5.90
2019-05-16T02:53:51.208Z,5.90
2019-05-16T02:56:21.171Z,5.90
2019-05-16T02:58:52.066Z,5.90
2019-05-16T03:01:21.595Z,5.80
2019-05-16T03:03:51.712Z,5.80
2019-05-16T03:06:21.786Z,5.80
2019-05-16T03:08:51.565Z,5.80
2019-05-16T03:11:21.425Z,5.90
2019-05-16T03:13:53.602Z,5.90
2019-05-16T03:16:23.954Z,5.90
2019-05-16T03:18:54.278Z,5.80
2019-05-16T03:21:24.970Z,5.80
2019-05-16T03:23:53.547Z,5.70
2019-05-16T03:26:22.172Z,5.80
2019-05-16T03:28:52.173Z,5.80
2019-05-16T03:31:24.761Z,5.70
2019-05-16T03:33:58.821Z,5.70
2019-05-16T03:36:25.215Z,5.70
2019-05-16T03:38:52.485Z,5.70
2019-05-16T03:41:21.685Z,5.70
2019-05-16T03:43:50.988Z,5.60
2019-05-16T03:46:21.519Z,5.60
2019-05-16T03:48:51.863Z,5.60
2019-05-16T03:51:21.724Z,5.60
2019-05-16T03:53:51.479Z,5.60
2019-05-16T03:56:21.846Z,5.60
2019-05-16T03:58:51.249Z,5.60
2019-05-16T04:01:21.014Z,5.50
2019-05-16T04:03:51.196Z,5.60
2019-05-16T04:06:22.064Z,5.60
2019-05-16T04:08:51.199Z,5.50
2019-05-16T04:11:23.166Z,5.60
2019-05-16T04:13:50.912Z,5.50
2019-05-16T04:16:20.966Z,5.50
2019-05-16T04:18:51.498Z,5.50
2019-05-16T04:21:21.821Z,5.40
2019-05-16T04:23:50.691Z,5.50
2019-05-16T04:26:21.722Z,5.50
2019-05-16T04:28:51.417Z,5.40
2019-05-16T04:31:22.082Z,5.50
2019-05-16T04:33:51.649Z,5.40
2019-05-16T04:36:21.317Z,5.50
2019-05-16T04:38:51.246Z,5.50
2019-05-16T04:41:21.079Z,5.40
2019-05-16T04:43:50.727Z,5.50
2019-05-16T04:46:21.475Z,5.50
2019-05-16T04:48:50.766Z,5.40
2019-05-16T04:51:21.855Z,5.40
2019-05-16T04:53:50.996Z,5.40
2019-05-16T04:56:21.776Z,5.40
2019-05-16T04:58:51.439Z,5.50
2019-05-16T05:01:21.439Z,5.50
2019-05-16T05:04:01.916Z,5.40
2019-05-16T05:06:21.370Z,5.50
2019-05-16T05:08:58.078Z,5.50
2019-05-16T05:11:21.585Z,5.40
2019-05-16T05:13:50.823Z,5.40
2019-05-16T05:16:20.484Z,5.50
2019-05-16T05:18:51.562Z,5.50
2019-05-16T05:21:20.921Z,5.50
2019-05-16T05:23:50.899Z,5.50
2019-05-16T05:26:20.070Z,5.50
2019-05-16T05:28:50.848Z,5.50
2019-05-16T05:31:25.019Z,5.50
2019-05-16T05:33:50.724Z,5.50
2019-05-16T05:36:21.047Z,5.50
2019-05-16T05:39:00.216Z,5.50
2019-05-16T05:41:20.336Z,5.40
2019-05-16T05:43:50.389Z,5.30
2019-05-16T05:46:20.498Z,5.30
2019-05-16T05:48:50.472Z,5.30
2019-05-16T05:51:20.686Z,5.40
2019-05-16T05:53:50.916Z,5.40
2019-05-16T05:56:19.859Z,5.30
2019-05-16T05:58:50.992Z,5.30
2019-05-16T06:01:20.573Z,5.20
2019-05-16T06:03:50.558Z,5.20
2019-05-16T06:06:21.064Z,5.20
2019-05-16T06:08:50.339Z,5.20
2019-05-16T06:11:20.517Z,5.20
2019-05-16T06:13:50.015Z,5.30
2019-05-16T06:16:20.419Z,5.20
2019-05-16T06:18:50.316Z,5.20
2019-05-16T06:21:20.381Z,5.30
2019-05-16T06:23:50.902Z,5.30
2019-05-16T06:26:20.435Z,5.40
2019-05-16T06:28:50.424Z,5.30
2019-05-16T06:31:22.131Z,5.30
2019-05-16T06:33:50.263Z,5.40
2019-05-16T06:36:20.421Z,5.50
2019-05-16T06:38:49.824Z,5.60
2019-05-16T06:41:19.884Z,5.70
2019-05-16T06:43:50.693Z,5.60
2019-05-16T06:46:20.093Z,5.50
2019-05-16T06:48:50.591Z,5.50
2019-05-16T06:51:20.059Z,5.40
2019-05-16T06:53:50.098Z,5.50
2019-05-16T06:56:19.992Z,5.40
2019-05-16T06:58:51.792Z,5.40
2019-05-16T07:01:20.825Z,5.30
2019-05-16T07:03:50.754Z,5.40
2019-05-16T07:06:45.591Z,5.50
2019-05-16T07:08:50.770Z,5.40
2019-05-16T07:11:20.220Z,5.40
2019-05-16T07:13:52.056Z,5.40
2019-05-16T07:16:20.574Z,5.50
2019-05-16T07:18:50.653Z,5.40
2019-05-16T07:21:20.327Z,5.50
2019-05-16T07:23:51.128Z,5.50
2019-05-16T07:26:20.669Z,5.50
2019-05-16T07:28:51.621Z,5.60
2019-05-16T07:31:22.656Z,5.70
2019-05-16T07:33:51.163Z,5.60
2019-05-16T07:36:20.899Z,5.60
2019-05-16T07:38:50.838Z,5.60
2019-05-16T07:41:20.589Z,5.60
2019-05-16T07:43:50.828Z,5.80
2019-05-16T07:46:20.582Z,5.70
2019-05-16T07:48:51.872Z,5.80
2019-05-16T07:51:22.097Z,5.90
2019-05-16T07:53:52.108Z,5.90
2019-05-16T07:56:21.702Z,5.90
2019-05-16T07:58:50.894Z,6.00
2019-05-16T08:01:20.239Z,6.00
2019-05-16T08:03:50.991Z,6.10
2019-05-16T08:06:21.179Z,6.10
2019-05-16T08:08:51.086Z,6.10
2019-05-16T08:11:23.681Z,6.00
2019-05-16T08:13:51.614Z,6.10
2019-05-16T08:16:22.902Z,6.10
2019-05-16T08:18:51.906Z,6.00
2019-05-16T08:21:20.780Z,6.00
2019-05-16T08:23:51.394Z,6.00
2019-05-16T08:26:21.821Z,6.10
2019-05-16T08:28:51.358Z,6.20
2019-05-16T08:31:21.368Z,6.30
2019-05-16T08:33:54.821Z,6.50
2019-05-16T08:36:22.358Z,6.50
2019-05-16T08:38:52.084Z,6.50
2019-05-16T08:41:22.147Z,6.60
2019-05-16T08:46:22.044Z,6.40
2019-05-16T08:48:53.830Z,6.50
2019-05-16T08:50:09.654Z,6.60
2019-05-16T08:51:22.357Z,6.50
2019-05-16T08:53:51.631Z,6.50
2019-05-16T08:56:24.986Z,6.40
2019-05-16T08:58:54.289Z,6.50
2019-05-16T09:01:23.810Z,6.60
2019-05-16T09:03:52.489Z,6.90
2019-05-16T09:06:22.942Z,7.00
2019-05-16T09:08:51.583Z,6.90
2019-05-16T09:11:38.948Z,6.70
2019-05-16T09:13:51.388Z,6.60
2019-05-16T09:16:20.371Z,6.70
2019-05-16T09:18:51.012Z,6.70
2019-05-16T09:21:20.293Z,6.80
2019-05-16T09:23:49.306Z,7.30
2019-05-16T09:26:19.808Z,7.30
2019-05-16T09:28:48.839Z,7.20
2019-05-16T09:31:18.086Z,7.20
2019-05-16T09:33:47.540Z,7.10
2019-05-16T09:36:17.565Z,7.30
2019-05-16T09:38:48.566Z,7.50
2019-05-16T09:41:18.201Z,7.30
2019-05-16T09:43:48.725Z,7.10
2019-05-16T09:46:18.057Z,7.10
2019-05-16T09:48:47.877Z,7.00
2019-05-16T09:51:19.369Z,6.90
2019-05-16T09:53:47.856Z,7.00
2019-05-16T09:56:18.488Z,7.20
2019-05-16T09:58:47.226Z,7.30
2019-05-16T10:01:17.533Z,7.00
2019-05-16T10:03:47.801Z,6.90
2019-05-16T10:06:19.026Z,6.90
2019-05-16T10:08:47.446Z,7.00
2019-05-16T10:11:18.158Z,7.00
2019-05-16T10:13:47.288Z,7.00
2019-05-16T10:16:18.530Z,7.10
2019-05-16T10:18:47.716Z,7.50
2019-05-16T10:21:20.381Z,7.70
2019-05-16T10:23:47.802Z,7.70
2019-05-16T10:26:19.228Z,7.60
2019-05-16T10:28:47.375Z,7.50
2019-05-16T10:31:17.759Z,7.20
2019-05-16T10:33:47.829Z,7.00
2019-05-16T10:36:22.130Z,7.00
2019-05-16T10:38:51.061Z,6.90
2019-05-16T10:41:20.043Z,6.90
2019-05-16T10:43:48.858Z,6.90
2019-05-16T10:46:17.900Z,7.10
2019-05-16T10:48:46.993Z,7.20
2019-05-16T10:51:16.983Z,7.20
2019-05-16T10:54:05.732Z,7.20
2019-05-16T10:56:16.475Z,7.40
2019-05-16T10:59:12.143Z,7.50
2019-05-16T11:01:27.065Z,7.80
2019-05-16T11:03:49.020Z,7.80
2019-05-16T11:06:25.185Z,7.60
2019-05-16T11:08:48.176Z,7.50
2019-05-16T11:11:19.671Z,7.70
2019-05-16T11:13:47.346Z,7.70
2019-05-16T11:16:17.457Z,7.80
2019-05-16T11:18:47.275Z,7.90
2019-05-16T11:21:18.930Z,8.40
2019-05-16T11:23:47.129Z,8.90
2019-05-16T11:26:16.052Z,9.20
2019-05-16T11:28:48.384Z,9.30
2019-05-16T11:31:17.663Z,9.10
2019-05-16T11:33:47.708Z,8.90
2019-05-16T11:36:16.776Z,8.70
2019-05-16T11:38:47.551Z,8.40
2019-05-16T11:41:16.831Z,8.20
2019-05-16T11:43:47.398Z,8.00
2019-05-16T11:46:16.500Z,8.00
2019-05-16T11:48:45.492Z,8.00
2019-05-16T11:51:14.416Z,8.10
2019-05-16T11:53:43.997Z,8.20
2019-05-16T11:56:13.045Z,8.10
2019-05-16T11:58:43.540Z,8.10
2019-05-16T12:01:12.865Z,8.20
2019-05-16T12:03:46.623Z,8.40
2019-05-16T12:06:16.961Z,8.40
2019-05-16T12:08:46.761Z,8.60
2019-05-16T12:11:17.865Z,8.80
2019-05-16T12:13:47.564Z,9.00
2019-05-16T12:16:18.781Z,9.20
2019-05-16T12:18:47.309Z,9.20
2019-05-16T12:21:17.261Z,9.00
2019-05-16T12:23:47.267Z,8.60
2019-05-16T12:26:17.629Z,8.20
2019-05-16T12:28:46.517Z,7.80
2019-05-16T12:31:17.393Z,7.60
2019-05-16T12:33:47.906Z,7.60
2019-05-16T12:36:17.573Z,7.60
2019-05-16T12:38:46.809Z,7.60
2019-05-16T12:41:15.861Z,7.50
2019-05-16T12:43:52.372Z,7.60
2019-05-16T12:46:16.225Z,7.70
2019-05-16T12:48:47.369Z,7.70
2019-05-16T12:51:17.231Z,7.80
2019-05-16T12:53:47.759Z,7.80
2019-05-16T12:56:17.564Z,7.70
2019-05-16T12:58:47.230Z,7.80
2019-05-16T13:01:20.240Z,7.80
2019-05-16T13:03:48.086Z,7.90
2019-05-16T13:06:17.381Z,7.90
2019-05-16T13:08:46.821Z,8.00
2019-05-16T13:11:17.726Z,8.10
2019-05-16T13:14:02.446Z,8.20
2019-05-16T13:16:16.715Z,8.40
2019-05-16T13:18:48.461Z,8.60
2019-05-16T13:21:18.055Z,8.80
2019-05-16T13:23:50.246Z,8.90
2019-05-16T13:26:18.903Z,9.10
2019-05-16T13:28:47.883Z,9.20
2019-05-16T13:31:17.090Z,9.20
2019-05-16T13:33:46.196Z,9.00
2019-05-16T13:36:17.475Z,9.00
2019-05-16T13:38:48.055Z,9.00
2019-05-16T13:41:18.202Z,8.90
2019-05-16T13:43:47.497Z,8.60
2019-05-16T13:46:17.263Z,8.50
2019-05-16T13:48:46.527Z,8.30
2019-05-16T13:51:18.729Z,8.20
2019-05-16T13:53:47.380Z,8.30
2019-05-16T13:56:17.572Z,8.30
2019-05-16T13:58:47.126Z,8.30
2019-05-16T14:01:17.167Z,8.50
2019-05-16T14:03:48.248Z,8.60
2019-05-16T14:06:18.406Z,8.80
2019-05-16T14:08:47.916Z,8.80
2019-05-16T14:11:17.499Z,9.00
2019-05-16T14:13:47.100Z,9.20
2019-05-16T14:16:18.002Z,9.10
2019-05-16T14:18:47.201Z,9.10
2019-05-16T14:21:18.152Z,9.00
2019-05-16T14:23:53.364Z,8.90
2019-05-16T14:26:17.629Z,8.90
2019-05-16T14:28:49.079Z,8.60
2019-05-16T14:31:18.050Z,8.50
2019-05-16T14:33:47.486Z,8.50
2019-05-16T14:36:16.983Z,8.50
2019-05-16T14:38:46.770Z,8.40
2019-05-16T14:41:17.378Z,8.40
2019-05-16T14:43:46.955Z,8.40
2019-05-16T14:46:18.411Z,8.30
2019-05-16T14:48:46.758Z,8.30
2019-05-16T14:51:17.916Z,8.40
2019-05-16T14:53:47.082Z,8.40
2019-05-16T14:56:16.496Z,8.60
2019-05-16T14:58:48.377Z,8.60
2019-05-16T15:01:17.627Z,8.70
2019-05-16T15:03:47.729Z,8.60
2019-05-16T15:06:18.270Z,8.50
2019-05-16T15:08:47.461Z,8.40
2019-05-16T15:11:17.947Z,8.30
2019-05-16T15:13:46.862Z,8.30
2019-05-16T15:16:16.969Z,8.20
2019-05-16T15:18:47.418Z,8.30
2019-05-16T15:21:17.687Z,8.30
2019-05-16T15:23:46.898Z,8.20
2019-05-16T15:26:18.142Z,8.10
2019-05-16T15:28:47.947Z,8.40
2019-05-16T15:31:18.079Z,8.30
2019-05-16T15:33:47.576Z,8.50
2019-05-16T15:36:16.804Z,8.70
2019-05-16T15:38:48.404Z,8.90
2019-05-16T15:41:18.143Z,8.80
2019-05-16T15:43:49.028Z,8.90
2019-05-16T15:46:20.399Z,8.90
2019-05-16T15:48:50.070Z,8.90
2019-05-16T15:51:21.302Z,8.90
2019-05-16T15:53:51.045Z,8.70
2019-05-16T15:56:20.313Z,8.40
2019-05-16T15:58:50.404Z,8.60
2019-05-16T16:01:19.435Z,8.50
2019-05-16T16:03:48.064Z,8.40
2019-05-16T16:06:17.777Z,8.40
2019-05-16T16:08:47.638Z,8.50
2019-05-16T16:11:17.275Z,8.70
2019-05-16T16:13:48.457Z,8.80
2019-05-16T16:16:17.398Z,8.80
2019-05-16T16:18:46.934Z,8.90
2019-05-16T16:21:16.646Z,9.00
2019-05-16T16:23:47.284Z,9.10
2019-05-16T16:26:17.819Z,9.20
2019-05-16T16:28:46.253Z,9.30
2019-05-16T16:31:16.768Z,9.40
2019-05-16T16:33:45.625Z,9.40
2019-05-16T16:36:17.121Z,9.50
2019-05-16T16:38:47.631Z,9.50
2019-05-16T16:41:16.648Z,9.60
2019-05-16T16:43:47.609Z,9.40
2019-05-16T16:46:16.825Z,9.20
2019-05-16T16:48:45.766Z,9.20
2019-05-16T16:51:17.379Z,9.20
2019-05-16T16:53:46.850Z,9.00
2019-05-16T16:56:16.822Z,9.00
2019-05-16T16:58:46.525Z,9.00
2019-05-16T17:01:17.397Z,9.00
2019-05-16T17:03:47.151Z,9.00
2019-05-16T17:06:17.710Z,9.00
2019-05-16T17:08:47.392Z,9.10
2019-05-16T17:11:16.414Z,9.20
2019-05-16T17:13:47.249Z,9.20
2019-05-16T17:16:25.217Z,9.30
2019-05-16T17:18:47.534Z,9.20
2019-05-16T17:21:17.225Z,9.20
2019-05-16T17:23:46.576Z,9.10
2019-05-16T17:26:15.637Z,9.10
2019-05-16T17:28:46.769Z,9.20
2019-05-16T17:31:16.843Z,9.30
2019-05-16T17:33:46.642Z,9.30
2019-05-16T17:36:17.198Z,9.30
2019-05-16T17:38:46.618Z,9.30
2019-05-16T17:41:16.781Z,9.30
2019-05-16T17:43:46.931Z,9.40
2019-05-16T17:46:15.880Z,9.30
2019-05-16T17:48:46.831Z,9.30
2019-05-16T17:51:16.846Z,9.30
2019-05-16T17:53:45.711Z,9.40
2019-05-16T17:56:16.876Z,9.40
2019-05-16T17:58:45.414Z,9.40
2019-05-16T18:01:16.942Z,9.40
2019-05-16T18:03:44.890Z,9.40
2019-05-16T18:06:14.062Z,9.40
2019-05-16T18:08:46.669Z,9.30
2019-05-16T18:11:17.746Z,9.20
2019-05-16T18:13:47.003Z,9.10
2019-05-16T18:16:15.850Z,9.10
2019-05-16T18:18:46.887Z,9.10
2019-05-16T18:21:16.975Z,9.00
2019-05-16T18:23:47.187Z,9.10
2019-05-16T18:26:17.302Z,9.00
2019-05-16T18:28:46.810Z,9.00
2019-05-16T18:31:17.243Z,9.00
2019-05-16T18:33:46.152Z,9.00
2019-05-16T18:36:16.975Z,9.00
2019-05-16T18:38:46.621Z,9.00
2019-05-16T18:41:16.592Z,8.90
2019-05-16T18:43:47.240Z,8.80
2019-05-16T18:46:16.354Z,8.80
2019-05-16T18:48:47.205Z,8.70
2019-05-16T18:51:15.515Z,8.70
2019-05-16T18:53:46.537Z,8.70
2019-05-16T18:56:16.801Z,8.70
2019-05-16T18:58:46.644Z,8.70
2019-05-16T19:01:17.604Z,8.70
2019-05-16T19:03:46.474Z,8.70
2019-05-16T19:06:17.148Z,8.80
2019-05-16T19:08:46.331Z,8.80
2019-05-16T19:11:17.377Z,8.90
2019-05-16T19:13:47.321Z,8.90
2019-05-16T19:16:17.270Z,8.80
2019-05-16T19:18:49.594Z,8.80
2019-05-16T19:21:18.285Z,8.70
2019-05-16T19:23:47.152Z,8.60
2019-05-16T19:26:16.721Z,8.60
2019-05-16T19:28:46.738Z,8.60
2019-05-16T19:31:17.172Z,8.60
2019-05-16T19:33:48.575Z,8.60
2019-05-16T19:36:16.800Z,8.70
2019-05-16T19:38:46.596Z,8.60
2019-05-16T19:41:15.576Z,8.60
2019-05-16T19:43:46.527Z,8.50
2019-05-16T19:46:15.973Z,8.50
2019-05-16T19:48:46.458Z,8.40
2019-05-16T19:51:18.968Z,8.40
2019-05-16T19:53:49.754Z,8.40
2019-05-16T19:56:18.487Z,8.40
2019-05-16T19:58:47.090Z,8.30
2019-05-16T20:01:16.807Z,8.30
2019-05-16T20:03:47.113Z,8.30
2019-05-16T20:06:16.836Z,8.10
2019-05-16T20:08:45.725Z,8.00
2019-05-16T20:11:16.710Z,7.80
2019-05-16T20:13:47.410Z,7.70
2019-05-16T20:16:18.109Z,7.60
2019-05-16T20:18:46.668Z,7.60
2019-05-16T20:21:16.459Z,7.70
2019-05-16T20:23:47.277Z,7.80
2019-05-16T20:26:16.845Z,7.90
2019-05-16T20:28:47.482Z,7.80
2019-05-16T20:31:17.065Z,7.70
2019-05-16T20:33:46.898Z,7.60
2019-05-16T20:36:17.370Z,7.70
2019-05-16T20:38:46.604Z,7.70
2019-05-16T20:41:17.078Z,7.70
2019-05-16T20:43:47.529Z,7.70
2019-05-16T20:46:16.912Z,7.70
2019-05-16T20:48:47.431Z,7.70
2019-05-16T20:51:20.043Z,7.70
2019-05-16T20:53:49.847Z,7.80
2019-05-16T20:56:18.322Z,7.90
2019-05-16T20:58:48.714Z,7.90
2019-05-16T21:01:17.845Z,8.10
2019-05-16T21:03:46.812Z,8.10
2019-05-16T21:06:17.046Z,8.10
2019-05-16T21:08:46.242Z,8.10
2019-05-16T21:11:17.171Z,8.10
2019-05-16T21:13:48.762Z,8.10
2019-05-16T21:16:16.649Z,8.00
2019-05-16T21:18:46.982Z,7.90
2019-05-16T21:21:16.600Z,7.80
2019-05-16T21:23:46.994Z,7.90
2019-05-16T21:26:15.733Z,8.00
2019-05-16T21:28:46.240Z,8.10
2019-05-16T21:31:16.473Z,8.10
2019-05-16T21:33:47.064Z,8.30
2019-05-16T21:36:18.847Z,8.30
2019-05-16T21:38:46.918Z,8.40
2019-05-16T21:41:16.847Z,8.40
2019-05-16T21:43:46.978Z,8.40
2019-05-16T21:46:17.216Z,8.10
2019-05-16T21:48:47.296Z,7.90
2019-05-16T21:51:19.703Z,7.80
2019-05-16T21:53:47.928Z,7.70
2019-05-16T21:56:17.686Z,7.70
2019-05-16T21:58:47.371Z,7.70
2019-05-16T22:01:19.136Z,7.60
2019-05-16T22:03:47.885Z,7.60
2019-05-16T22:06:16.765Z,7.50
2019-05-16T22:08:46.736Z,7.50
2019-05-16T22:11:17.259Z,7.40
2019-05-16T22:13:46.570Z,7.40
2019-05-16T22:16:17.587Z,7.50
2019-05-16T22:18:47.438Z,7.60
2019-05-16T22:21:16.828Z,7.70
2019-05-16T22:23:46.547Z,7.60
2019-05-16T22:26:16.794Z,7.50
2019-05-16T22:28:49.381Z,7.30
2019-05-16T22:31:17.306Z,7.10
2019-05-16T22:33:46.943Z,7.10
2019-05-16T22:36:17.316Z,7.10
2019-05-16T22:38:46.673Z,7.10
2019-05-16T22:41:17.234Z,7.00
2019-05-16T22:43:46.726Z,7.10
2019-05-16T22:46:17.704Z,7.10
2019-05-16T22:48:46.778Z,7.20
2019-05-16T22:51:16.557Z,7.20
2019-05-16T22:53:45.576Z,7.30
2019-05-16T22:56:14.841Z,7.30
2019-05-16T22:58:44.068Z,7.30
2019-05-16T23:01:13.293Z,7.40
2019-05-16T23:03:43.200Z,7.40
2019-05-16T23:06:12.224Z,7.40
2019-05-16T23:08:41.159Z,7.40
2019-05-16T23:11:11.687Z,7.70
2019-05-16T23:13:42.200Z,8.00
2019-05-16T23:16:11.728Z,8.30
2019-05-16T23:18:40.574Z,8.50
2019-05-16T23:21:09.200Z,8.70
2019-05-16T23:23:37.750Z,8.70
2019-05-16T23:26:06.563Z,8.70
2019-05-16T23:28:36.724Z,8.60
2019-05-16T23:31:05.797Z,8.70
2019-05-16T23:33:36.353Z,8.70
2019-05-16T23:36:06.851Z,8.60
2019-05-16T23:38:36.691Z,8.70
2019-05-16T23:41:06.522Z,8.50
2019-05-16T23:43:37.392Z,8.50
2019-05-16T23:46:07.090Z,8.50
2019-05-16T23:48:36.527Z,8.50
2019-05-16T23:51:07.501Z,8.40
2019-05-16T23:53:37.117Z,8.40
2019-05-16T23:56:07.448Z,8.40
2019-05-16T23:58:36.946Z,8.30
